LIPX/VRN METAR and TAF weather

Enter ICAO airport designator
Station Type Date Time Source
LIPX METAR 2019/08/17 10:20 UTC NOAA

LIPX 171020Z 15003KT 060V210 CAVOK 26/13 Q1017


Station Type Date Time Source
LIPX Decoded METAR 2019/08/17 10:20 UTC NOAA

Station name not available
Aug 17, 2019 - 06:20 AM EDT / 2019.08.17 1020 UTC
Wind: from the SSE (150 degrees) at 3 MPH (3 KT) (direction variable):0
Visibility: greater than 7 mile(s):0
Temperature: 78 F (26 C)
Dew Point: 55 F (13 C)
Relative Humidity: 44%
Pressure (altimeter): 30.03 in. Hg (1017 hPa)
ob: LIPX 171020Z 15003KT 060V210 CAVOK 26/13 Q1017
cycle: 10

Station Type Date Time Source
LIPX TAF 2014/04/22 15:24 UTC NOAA

TAF LIPX 221400Z 2215/2324 VRB05KT 9999 SCT030 SCT070
TEMPO 2215/2218 SCT025CB SCT080 PROB30
TEMPO 2215/2218 TS

Example: see airport list